Time;durP1;ratioP1;P1;durP2;ratioP2;P2;SDS_P1;SDS_P2;PMS_P1;PMS_P2;Temp;Humidity;BMP_temperature;BMP_pressure;BME280_temperature;BME280_humidity;BME280_pressure;Samples;Min_cycle;Max_cycle;Signal;HPM_P1;HPM_P2
2023/09/15 00:00:20;;;;;;;17.30;15.38;;;;;;;14.78;100.00;102012.09;5068439;28;20107;-66
2023/09/15 00:02:47;;;;;;;24.05;16.15;;;;;;;14.75;100.00;102015.66;5064895;28;20112;-70
2023/09/15 00:05:13;;;;;;;22.55;15.43;;;;;;;14.69;100.00;102007.91;5068321;28;20031;-64
2023/09/15 00:07:39;;;;;;;25.17;16.05;;;;;;;14.61;100.00;102013.47;5081786;28;20029;-63
2023/09/15 00:10:06;;;;;;;22.08;16.60;;;;;;;14.64;100.00;102012.50;5068025;28;20024;-67
2023/09/15 00:12:31;;;;;;;22.67;17.20;;;;;;;14.60;100.00;102009.06;5067915;28;20082;-71
2023/09/15 00:14:57;;;;;;;25.70;16.80;;;;;;;14.57;100.00;102013.63;5067406;28;20020;-69
2023/09/15 00:17:25;;;;;;;20.33;16.83;;;;;;;14.56;100.00;102012.75;5067501;28;20033;-54
2023/09/15 00:19:50;;;;;;;20.45;17.75;;;;;;;14.51;100.00;102014.69;5068920;28;20024;-70
2023/09/15 00:22:16;;;;;;;23.83;17.88;;;;;;;14.49;100.00;102008.56;5068931;28;20031;-67
2023/09/15 00:24:41;;;;;;;21.55;17.20;;;;;;;14.44;100.00;102005.16;5068225;28;20390;-69
2023/09/15 00:27:06;;;;;;;24.25;18.63;;;;;;;14.40;100.00;102009.72;5066663;28;20032;-66
2023/09/15 00:29:32;;;;;;;22.60;17.60;;;;;;;14.35;100.00;102009.84;5068150;28;20375;-61
2023/09/15 00:31:57;;;;;;;25.70;18.65;;;;;;;14.31;100.00;102005.56;5068532;28;20028;-66
2023/09/15 00:34:22;;;;;;;28.08;19.88;;;;;;;14.28;100.00;102003.88;5066599;28;20033;-63
2023/09/15 00:36:49;;;;;;;25.60;18.35;;;;;;;14.28;100.00;102003.88;5068421;28;20077;-67
2023/09/15 00:39:14;;;;;;;26.23;18.10;;;;;;;14.30;100.00;102006.47;5068020;28;20086;-69
2023/09/15 00:41:39;;;;;;;25.77;19.13;;;;;;;14.24;100.00;102006.69;5064693;28;20395;-66
2023/09/15 00:44:05;;;;;;;27.35;19.77;;;;;;;14.26;100.00;102004.84;5067109;28;20028;-52
2023/09/15 00:46:30;;;;;;;23.02;18.67;;;;;;;14.27;100.00;102001.28;5068597;28;20386;-67
2023/09/15 00:48:57;;;;;;;26.13;19.80;;;;;;;14.26;100.00;101999.53;5067635;28;20058;-66
2023/09/15 00:51:23;;;;;;;28.52;20.95;;;;;;;14.26;100.00;102004.84;5067879;28;20024;-55
2023/09/15 00:53:49;;;;;;;25.75;20.83;;;;;;;14.22;100.00;102000.53;5069035;28;20052;-65
2023/09/15 00:56:14;;;;;;;26.63;20.70;;;;;;;14.18;100.00;102001.56;5066954;28;20060;-69
2023/09/15 00:58:40;;;;;;;26.95;21.50;;;;;;;14.15;100.00;102003.38;5068155;28;20025;-63
2023/09/15 01:01:06;;;;;;;30.92;22.13;;;;;;;14.14;100.00;101996.34;5068019;28;20654;-69
2023/09/15 01:03:35;;;;;;;29.42;22.10;;;;;;;14.10;100.00;101994.72;5066703;28;20025;-63
2023/09/15 01:06:00;;;;;;;;;;;;;;;14.11;100.00;102001.75;5071284;28;20024;-70
2023/09/15 01:08:26;;;;;;;28.40;20.58;;;;;;;14.06;100.00;101992.19;5124125;22;20436;-64
2023/09/15 01:10:51;;;;;;;27.92;21.40;;;;;;;14.06;100.00;101990.41;5034355;28;20029;-67
2023/09/15 01:13:16;;;;;;;33.90;22.58;;;;;;;13.99;100.00;101989.72;5038008;28;20021;-70
2023/09/15 01:15:57;;;;;;;32.47;22.92;;;;;;;13.96;100.00;101988.94;5037994;28;20391;-69
2023/09/15 01:18:42;;;;;;;30.67;21.77;;;;;;;13.92;100.00;101989.94;5034700;28;20176;-52
2023/09/15 01:21:34;;;;;;;29.08;22.40;;;;;;;13.89;100.00;101993.56;5030413;28;20060;-67
2023/09/15 01:24:08;;;;;;;28.80;22.80;;;;;;;13.84;100.00;101985.75;5036545;28;20053;-69
2023/09/15 01:26:43;;;;;;;27.52;22.50;;;;;;;13.84;100.00;101983.09;5024359;28;20025;-66
2023/09/15 01:29:28;;;;;;;28.60;23.55;;;;;;;13.80;100.00;101976.16;5042670;28;20063;-70
2023/09/15 01:31:54;;;;;;;28.90;22.42;;;;;;;13.81;100.00;101979.69;5037915;28;20035;-68
2023/09/15 01:34:19;;;;;;;33.33;23.38;;;;;;;13.77;100.00;101970.94;5037700;28;20017;-70
2023/09/15 01:36:44;;;;;;;30.48;22.67;;;;;;;13.76;100.00;101977.19;5034287;28;20053;-70
2023/09/15 01:39:10;;;;;;;30.58;22.65;;;;;;;13.77;100.00;101976.25;5040635;28;20471;-63
2023/09/15 01:41:35;;;;;;;28.98;23.08;;;;;;;13.75;100.00;101970.13;5037667;28;20028;-69
2023/09/15 01:44:01;;;;;;;30.92;24.00;;;;;;;13.77;100.00;101968.31;5037103;28;20033;-69
2023/09/15 01:46:26;;;;;;;33.08;23.95;;;;;;;13.76;100.00;101967.44;5041874;28;20026;-54
2023/09/15 01:48:56;;;;;;;30.60;23.42;;;;;;;13.74;100.00;101963.09;5037477;28;20040;-69
2023/09/15 01:51:22;;;;;;;32.78;23.73;;;;;;;13.70;100.00;101966.75;5038066;28;20659;-71
2023/09/15 01:53:51;;;;;;;30.92;24.40;;;;;;;13.68;100.00;101969.44;5035812;28;20100;-69
2023/09/15 01:56:17;;;;;;;33.67;24.40;;;;;;;13.66;100.00;101965.13;5035679;28;20021;-73
2023/09/15 01:58:42;;;;;;;31.98;23.92;;;;;;;13.62;100.00;101966.97;5039481;28;20052;-66
2023/09/15 02:01:08;;;;;;;31.83;25.80;;;;;;;13.55;100.00;101970.72;5039904;28;20112;-69
2023/09/15 02:03:33;;;;;;;33.72;25.05;;;;;;;13.52;100.00;101961.94;5037190;28;20579;-69
2023/09/15 02:06:03;;;;;;;33.45;24.63;;;;;;;13.54;100.00;101967.19;5043852;28;20024;-69
2023/09/15 02:08:28;;;;;;;34.85;24.75;;;;;;;13.51;100.00;101957.56;5038453;28;20517;-70
2023/09/15 02:10:54;;;;;;;32.55;25.77;;;;;;;13.47;100.00;101949.69;5037383;28;20029;-69
2023/09/15 02:13:19;;;;;;;33.97;25.25;;;;;;;13.43;100.00;101951.59;5039798;28;20056;-65
2023/09/15 02:15:45;;;;;;;30.75;25.42;;;;;;;13.42;100.00;101956.94;5030376;28;20021;-66
2023/09/15 02:18:10;;;;;;;32.45;26.48;;;;;;;13.40;100.00;101963.09;5037106;28;20465;-71
2023/09/15 02:20:35;;;;;;;37.30;27.40;;;;;;;13.36;100.00;101953.53;5038897;28;20127;-68
2023/09/15 02:23:03;;;;;;;37.03;26.83;;;;;;;13.35;100.00;101951.78;5039503;28;20514;-68
2023/09/15 02:25:32;;;;;;;34.78;25.42;;;;;;;13.36;100.00;101948.22;5039450;28;20026;-65
2023/09/15 02:27:57;;;;;;;32.70;25.20;;;;;;;13.38;100.00;101943.78;5034212;28;20057;-71
2023/09/15 02:30:23;;;;;;;36.10;26.42;;;;;;;13.34;100.00;101941.25;5040197;28;20059;-55
2023/09/15 02:32:48;;;;;;;34.55;26.15;;;;;;;13.35;100.00;101945.63;5034937;28;20046;-68
2023/09/15 02:35:13;;;;;;;36.50;27.20;;;;;;;13.35;100.00;101942.97;5033552;28;20016;-66
2023/09/15 02:37:39;;;;;;;38.03;26.50;;;;;;;13.30;100.00;101940.44;5033110;28;20025;-69
2023/09/15 02:40:06;;;;;;;36.67;26.60;;;;;;;13.27;100.00;101937.88;5039337;28;20029;-66
2023/09/15 02:42:33;;;;;;;36.15;26.88;;;;;;;13.32;100.00;101943.94;5036178;28;20031;-71
2023/09/15 02:44:58;;;;;;;36.50;26.80;;;;;;;13.32;100.00;101951.88;5037574;28;20736;-72
2023/09/15 02:47:24;;;;;;;35.47;27.10;;;;;;;13.39;100.00;101942.84;5042395;28;20017;-69
2023/09/15 02:49:49;;;;;;;35.90;27.88;;;;;;;13.37;100.00;101944.66;5041438;28;20025;-64
2023/09/15 02:52:14;;;;;;;38.45;29.45;;;;;;;13.37;100.00;101947.31;5039429;28;20104;-65
2023/09/15 02:54:40;;;;;;;35.85;27.65;;;;;;;13.40;100.00;101946.38;5040123;28;20060;-70
2023/09/15 02:57:05;;;;;;;37.10;26.95;;;;;;;13.38;100.00;101949.06;5039360;28;20444;-65
2023/09/15 02:59:30;;;;;;;36.17;27.10;;;;;;;13.34;100.00;101939.44;5041752;28;20108;-69
2023/09/15 03:01:56;;;;;;;35.50;27.95;;;;;;;13.37;100.00;101949.94;5039468;28;20034;-69
2023/09/15 03:04:21;;;;;;;39.10;28.65;;;;;;;13.37;100.00;101946.47;5041733;28;20055;-62
2023/09/15 03:06:47;;;;;;;40.25;28.35;;;;;;;13.33;100.00;101944.81;5047559;28;20437;-67
2023/09/15 03:09:12;;;;;;;37.78;28.45;;;;;;;13.30;100.00;101940.44;5039983;28;20078;-67
2023/09/15 03:11:38;;;;;;;36.38;27.65;;;;;;;13.29;100.00;101938.72;5040328;28;20028;-59
2023/09/15 03:14:03;;;;;;;39.60;29.70;;;;;;;13.30;100.00;101942.25;5041382;28;20508;-67
2023/09/15 03:16:29;;;;;;;37.20;29.38;;;;;;;13.29;100.00;101938.72;5035679;28;20072;-69
2023/09/15 03:18:55;;;;;;;36.60;27.63;;;;;;;13.26;100.00;101929.09;5034618;28;20037;-65
2023/09/15 03:21:20;;;;;;;37.08;28.33;;;;;;;13.29;100.00;101927.25;5039266;28;20346;-65
2023/09/15 03:23:48;;;;;;;36.53;28.77;;;;;;;13.31;100.00;101926.31;5040611;28;20652;-70
2023/09/15 03:26:13;;;;;;;35.40;28.50;;;;;;;13.29;100.00;101922.84;5041541;28;20712;-68
2023/09/15 03:28:39;;;;;;;37.78;29.08;;;;;;;13.31;100.00;101921.03;5042267;28;20028;-67
2023/09/15 03:31:04;;;;;;;40.10;29.27;;;;;;;13.27;100.00;101922.00;5042504;28;20498;-66
2023/09/15 03:33:33;;;;;;;46.60;30.60;;;;;;;13.29;100.00;101920.19;5041244;28;20044;-69
2023/09/15 03:36:00;;;;;;;39.30;28.95;;;;;;;13.32;100.00;101920.13;5039725;28;20024;-69
2023/09/15 03:38:25;;;;;;;39.65;29.08;;;;;;;13.33;100.00;101913.91;5039198;28;20041;-69
2023/09/15 03:40:50;;;;;;;40.70;29.95;;;;;;;13.26;100.00;101918.50;5033812;28;20048;-65
2023/09/15 03:43:16;;;;;;;38.55;28.73;;;;;;;13.23;100.00;101915.06;5041243;28;20031;-58
2023/09/15 03:45:46;;;;;;;41.38;30.05;;;;;;;13.24;100.00;101916.78;5036044;28;20729;-70
2023/09/15 03:48:12;;;;;;;38.72;29.48;;;;;;;13.17;100.00;101910.81;5038203;28;20025;-69
2023/09/15 03:50:37;;;;;;;46.03;30.85;;;;;;;13.13;100.00;101907.38;5041583;28;20383;-68
2023/09/15 03:53:02;;;;;;;47.53;31.58;;;;;;;13.08;100.00;101906.66;5039454;28;20017;-65
2023/09/15 03:55:28;;;;;;;38.35;29.70;;;;;;;13.06;100.00;101911.09;5037751;28;20067;-68
2023/09/15 03:57:53;;;;;;;38.10;29.17;;;;;;;13.08;100.00;101911.94;5041801;28;20585;-69
2023/09/15 04:00:19;;;;;;;45.42;30.45;;;;;;;13.12;100.00;101910.06;5040949;28;20506;-66
2023/09/15 04:02:44;;;;;;;41.17;31.88;;;;;;;13.16;100.00;101900.28;5040212;28;20610;-51
2023/09/15 04:05:10;;;;;;;42.65;32.05;;;;;;;13.10;100.00;101903.97;5039846;28;20028;-70
2023/09/15 04:07:37;;;;;;;43.85;32.50;;;;;;;13.10;100.00;101902.16;5039108;28;20052;-66
2023/09/15 04:10:05;;;;;;;43.83;31.23;;;;;;;13.09;100.00;101895.16;5039491;28;20048;-64
2023/09/15 04:12:30;;;;;;;43.88;32.42;;;;;;;12.99;100.00;101902.47;5039674;28;20407;-67
2023/09/15 04:14:55;;;;;;;40.15;31.10;;;;;;;13.00;100.00;101900.69;5033946;28;20040;-70
2023/09/15 04:17:21;;;;;;;43.40;31.25;;;;;;;12.96;100.00;101899.91;5041887;28;20491;-67
2023/09/15 04:19:46;;;;;;;48.90;32.58;;;;;;;12.99;100.00;101904.25;5039233;28;20421;-66
2023/09/15 04:22:12;;;;;;;42.17;31.70;;;;;;;12.95;100.00;101898.19;5033712;28;20053;-67
2023/09/15 04:24:37;;;;;;;42.22;31.08;;;;;;;12.92;100.00;101902.69;5039496;28;20100;-70
2023/09/15 04:27:02;;;;;;;39.05;30.35;;;;;;;12.95;100.00;101905.25;5036915;28;20071;-67
2023/09/15 04:29:28;;;;;;;46.28;31.25;;;;;;;12.89;100.00;101899.19;5038886;28;20017;-68
2023/09/15 04:31:53;;;;;;;42.38;30.05;;;;;;;12.93;100.00;101899.13;5040917;28;20124;-68
2023/09/15 04:34:19;;;;;;;40.70;30.83;;;;;;;12.91;100.00;101896.50;5038593;28;20537;-67
2023/09/15 04:36:44;;;;;;;40.97;32.03;;;;;;;12.92;100.00;101894.75;5034855;28;20408;-70
2023/09/15 04:39:10;;;;;;;50.40;32.50;;;;;;;12.89;100.00;101899.19;5038149;28;20476;-68
2023/09/15 04:41:35;;;;;;;42.15;30.08;;;;;;;12.88;100.00;101892.19;5037080;28;20116;-65
2023/09/15 04:44:01;;;;;;;39.90;30.73;;;;;;;12.90;100.00;101894.78;5037368;28;20079;-69
2023/09/15 04:46:26;;;;;;;46.78;31.15;;;;;;;12.85;100.00;101892.25;5038207;28;20024;-67
2023/09/15 04:48:51;;;;;;;44.85;30.67;;;;;;;12.83;100.00;101898.50;5039512;28;20038;-66
2023/09/15 04:51:17;;;;;;;43.80;31.27;;;;;;;12.79;100.00;101887.13;5038350;28;20056;-69
2023/09/15 04:53:42;;;;;;;39.35;30.02;;;;;;;12.81;100.00;101893.25;5041063;28;20044;-71
2023/09/15 04:56:08;;;;;;;42.55;30.50;;;;;;;12.80;100.00;101901.22;5037342;28;20096;-65
2023/09/15 04:58:33;;;;;;;40.35;29.63;;;;;;;12.78;100.00;101898.63;5037157;28;20017;-66
2023/09/15 05:00:59;;;;;;;42.50;30.65;;;;;;;12.75;100.00;101896.06;5031738;28;20057;-69
2023/09/15 05:03:25;;;;;;;42.58;30.77;;;;;;;12.78;100.00;101909.19;5033500;28;20025;-66
2023/09/15 05:05:51;;;;;;;42.72;31.02;;;;;;;12.78;100.00;101901.28;5036087;28;20024;-65
2023/09/15 05:08:18;;;;;;;46.38;31.02;;;;;;;12.77;100.00;101907.47;5039522;28;20517;-66
2023/09/15 05:10:46;;;;;;;42.40;30.70;;;;;;;12.76;100.00;101901.31;5033272;28;20042;-68
2023/09/15 05:13:11;;;;;;;42.63;30.17;;;;;;;12.74;100.00;101905.75;5042327;28;20025;-61
2023/09/15 05:15:37;;;;;;;44.80;31.05;;;;;;;12.75;100.00;101912.81;5036121;28;20025;-64
2023/09/15 05:18:03;;;;;;;41.65;29.55;;;;;;;12.75;100.00;101911.94;5038877;28;20033;-66
2023/09/15 05:20:28;;;;;;;43.58;30.13;;;;;;;12.75;100.00;101911.94;5038823;28;20024;-65
2023/09/15 05:22:54;;;;;;;38.88;28.60;;;;;;;12.75;100.00;101910.16;5037269;28;20075;-68
2023/09/15 05:25:19;;;;;;;43.65;30.13;;;;;;;12.78;100.00;101914.50;5037509;28;20101;-62
2023/09/15 05:27:44;;;;;;;45.13;31.17;;;;;;;12.72;100.00;101925.22;5034342;28;20029;-68
2023/09/15 05:30:10;;;;;;;40.70;30.13;;;;;;;12.72;100.00;101917.28;5039288;28;20100;-60
2023/09/15 05:32:35;;;;;;;42.85;30.30;;;;;;;12.74;100.00;101920.78;5036812;28;20043;-62
2023/09/15 05:35:01;;;;;;;41.25;28.55;;;;;;;12.72;100.00;101922.59;5032768;28;20108;-65
2023/09/15 05:37:26;;;;;;;43.88;27.90;;;;;;;12.74;100.00;101920.78;5024444;28;20372;-59
2023/09/15 05:39:52;;;;;;;39.22;28.05;;;;;;;12.77;100.00;101916.25;5024872;28;20353;-64
2023/09/15 05:42:17;;;;;;;38.80;27.40;;;;;;;12.83;100.00;101909.97;5026880;28;20549;-67
2023/09/15 05:44:43;;;;;;;34.55;25.67;;;;;;;12.88;100.00;101912.47;5031416;28;20056;-69
2023/09/15 05:47:08;;;;;;;39.38;27.63;;;;;;;12.95;100.00;101911.41;5033832;28;20060;-66
2023/09/15 05:49:33;;;;;;;42.10;26.92;;;;;;;12.89;100.00;101909.78;5045565;28;20025;-68
2023/09/15 05:52:00;;;;;;;39.00;27.08;;;;;;;12.94;100.00;101912.31;5039054;28;20430;-66
2023/09/15 05:54:26;;;;;;;39.85;26.30;;;;;;;12.96;100.00;101915.78;5031504;28;20028;-67
2023/09/15 05:56:52;;;;;;;39.33;26.77;;;;;;;13.00;100.00;101911.28;5034161;28;20388;-66
2023/09/15 05:59:17;;;;;;;35.28;24.75;;;;;;;13.06;100.00;101916.41;5036537;28;20058;-66
2023/09/15 06:01:46;;;;;;;37.10;26.48;;;;;;;13.06;100.00;101919.03;5036743;28;20099;-68
2023/09/15 06:04:15;;;;;;;34.03;24.15;;;;;;;13.06;100.00;101908.47;5035983;28;20018;-59
2023/09/15 06:06:40;;;;;;;36.42;25.15;;;;;;;13.08;100.00;101917.25;5034953;28;20033;-69
2023/09/15 06:09:06;;;;;;;32.40;24.52;;;;;;;13.13;100.00;101915.31;5037148;28;20451;-67
2023/09/15 06:11:31;;;;;;;30.75;24.15;;;;;;;13.18;100.00;101923.13;5037405;28;20108;-69
2023/09/15 06:13:56;;;;;;;34.63;24.08;;;;;;;13.25;100.00;101915.91;5017634;28;20024;-70
2023/09/15 06:16:22;;;;;;;36.08;23.40;;;;;;;13.27;100.00;101924.66;5037392;28;20013;-67
2023/09/15 06:18:47;;;;;;;30.17;22.60;;;;;;;13.36;100.00;101924.41;5029989;28;20529;-59
2023/09/15 06:21:13;;;;;;;32.90;22.40;;;;;;;13.48;100.00;101919.66;5036587;28;20116;-68
2023/09/15 06:23:39;;;;;;;29.63;22.30;;;;;;;13.50;100.00;101921.41;5034782;28;20025;-57
2023/09/15 06:26:04;;;;;;;28.73;21.48;;;;;;;13.56;100.00;101927.41;5037024;28;20088;-65
2023/09/15 06:28:29;;;;;;;28.65;21.52;;;;;;;13.58;100.00;101921.16;5038257;28;20037;-69
2023/09/15 06:30:55;;;;;;;27.27;20.92;;;;;;;13.65;100.00;101924.50;5038887;28;20025;-68
2023/09/15 06:33:21;;;;;;;27.35;19.55;;;;;;;13.75;100.00;101927.75;5036716;28;20018;-66
2023/09/15 06:35:47;;;;;;;25.67;18.92;;;;;;;13.83;100.00;101922.22;5039290;28;20160;-61
2023/09/15 06:38:12;;;;;;;24.75;19.45;;;;;;;13.87;100.00;101930.03;5042426;28;20551;-68
2023/09/15 06:40:38;;;;;;;28.25;19.90;;;;;;;13.89;100.00;101917.63;5035333;28;20026;-69
2023/09/15 06:43:05;;;;;;;26.85;17.58;;;;;;;13.96;100.00;101918.28;5035809;28;20052;-66
2023/09/15 06:45:34;;;;;;;27.45;18.30;;;;;;;14.03;100.00;101918.97;5036359;28;20510;-67
2023/09/15 06:47:59;;;;;;;23.90;17.38;;;;;;;14.09;100.00;101905.50;5033565;28;20502;-67
2023/09/15 06:50:25;;;;;;;24.23;17.48;;;;;;;14.20;100.00;101904.28;5039633;28;20018;-69
2023/09/15 06:52:50;;;;;;;25.50;16.73;;;;;;;14.36;100.00;101905.53;5036153;28;20432;-61
2023/09/15 06:55:16;;;;;;;24.83;16.42;;;;;;;14.44;100.00;101907.06;5030968;28;20131;-68
2023/09/15 06:57:41;;;;;;;22.38;15.32;;;;;;;14.56;100.00;101911.97;5041855;28;20566;-70
2023/09/15 07:00:09;;;;;;;22.42;15.27;;;;;;;14.69;100.00;101900.94;5034408;28;20059;-63
2023/09/15 07:02:34;;;;;;;23.67;15.77;;;;;;;14.73;100.00;101902.56;5032869;28;20025;-65
2023/09/15 07:05:00;;;;;;;25.17;15.95;;;;;;;14.80;100.00;101903.22;5039801;28;20021;-68
2023/09/15 07:07:25;;;;;;;18.73;14.35;;;;;;;14.80;100.00;101904.13;5035319;28;20024;-68
2023/09/15 07:09:50;;;;;;;18.77;13.95;;;;;;;14.88;100.00;101902.06;5036384;28;20049;-64
2023/09/15 07:12:16;;;;;;;18.90;13.05;;;;;;;14.99;100.00;101908.78;5035602;28;20017;-61
2023/09/15 07:14:42;;;;;;;17.75;12.82;;;;;;;15.10;100.00;101906.59;5034220;28;20507;-69
2023/09/15 07:17:07;;;;;;;20.88;13.57;;;;;;;15.18;100.00;101905.44;5037213;28;20032;-68
2023/09/15 07:19:32;;;;;;;18.05;13.45;;;;;;;15.25;100.00;101910.50;5037175;28;20103;-61
2023/09/15 07:21:58;;;;;;;17.83;12.73;;;;;;;15.25;100.00;101914.94;5036195;28;20131;-69
2023/09/15 07:24:23;;;;;;;18.17;11.82;;;;;;;15.30;100.00;101918.28;5034161;28;20048;-68
2023/09/15 07:26:48;;;;;;;15.13;11.18;;;;;;;15.49;100.00;101909.63;5038489;28;20029;-66
2023/09/15 07:29:14;;;;;;;13.20;11.13;;;;;;;15.52;100.00;101902.41;5041230;28;20017;-68
2023/09/15 07:31:42;;;;;;;15.45;11.70;;;;;;;15.54;100.00;101899.72;5036559;28;20431;-66
2023/09/15 07:34:08;;;;;;;13.70;10.70;;;;;;;15.64;100.00;101901.09;5038932;28;20056;-68
2023/09/15 07:36:33;;;;;;;16.15;11.25;;;;;;;15.69;100.00;101902.69;5041398;28;20072;-69
2023/09/15 07:38:58;;;;;;;15.05;10.32;;;;;;;15.75;100.00;101895.34;5036484;28;20060;-63
2023/09/15 07:41:24;;;;;;;15.30;9.93;;;;;;;15.75;100.00;101898.00;5037095;28;20024;-69
2023/09/15 07:43:51;;;;;;;14.85;10.35;;;;;;;15.90;100.00;101904.50;5038871;28;20484;-68
2023/09/15 07:46:17;;;;;;;17.08;10.73;;;;;;;15.94;100.00;101897.28;5033797;28;20021;-65
2023/09/15 07:48:42;;;;;;;15.27;9.63;;;;;;;16.08;100.00;101898.56;5037059;28;20379;-68
2023/09/15 07:51:08;;;;;;;11.82;9.75;;;;;;;16.11;100.00;101885.13;5036747;28;20013;-68
2023/09/15 07:53:33;;;;;;;14.90;10.35;;;;;;;16.13;100.00;101886.81;5037103;28;20094;-68
2023/09/15 07:55:59;;;;;;;13.20;10.25;;;;;;;16.17;100.00;101885.75;5037725;28;20025;-69
2023/09/15 07:58:24;;;;;;;13.45;9.68;;;;;;;16.15;100.00;101889.41;5038393;28;20593;-64
2023/09/15 08:00:50;;;;;;;18.50;10.10;;;;;;;16.16;100.00;101883.16;5036252;28;20028;-68
2023/09/15 08:03:15;;;;;;;12.00;8.65;;;;;;;16.30;100.00;101890.56;5039398;28;20066;-69
2023/09/15 08:05:41;;;;;;;13.95;9.75;;;;;;;16.37;100.00;101893.81;5037540;28;20025;-64
2023/09/15 08:08:06;;;;;;;12.90;10.20;;;;;;;16.28;100.00;101893.28;5037099;28;20041;-67
2023/09/15 08:10:32;;;;;;;14.80;9.43;;;;;;;16.47;100.00;101886.34;5037326;28;20403;-66
2023/09/15 08:12:57;;;;;;;13.85;9.65;;;;;;;16.58;100.00;101885.88;5033751;28;20025;-66
2023/09/15 08:15:22;;;;;;;13.40;9.75;;;;;;;16.68;100.00;101879.25;5034206;28;20055;-60
2023/09/15 08:17:48;;;;;;;15.30;9.65;;;;;;;16.67;100.00;101875.69;5039500;28;20224;-68
2023/09/15 08:20:14;;;;;;;13.95;9.13;;;;;;;16.72;100.00;101877.28;5036177;28;20021;-62
2023/09/15 08:22:39;;;;;;;14.90;10.57;;;;;;;16.70;100.00;101877.34;5037970;28;20025;-63
2023/09/15 08:25:06;;;;;;;15.73;11.30;;;;;;;16.75;100.00;101882.47;5035383;28;20018;-67
2023/09/15 08:27:32;;;;;;;13.70;10.93;;;;;;;16.83;100.00;101883.03;5035521;28;20017;-67
2023/09/15 08:29:57;;;;;;;12.68;9.35;;;;;;;16.93;100.00;101881.69;5038044;28;20060;-69
2023/09/15 08:32:22;;;;;;;13.65;10.00;;;;;;;17.08;100.00;101883.75;5032050;28;20025;-59
2023/09/15 08:34:48;;;;;;;15.32;9.95;;;;;;;17.20;100.00;101882.34;5037456;28;20029;-57
2023/09/15 08:37:13;;;;;;;13.25;10.07;;;;;;;17.30;100.00;101883.63;5034745;28;20024;-66
2023/09/15 08:39:39;;;;;;;13.48;9.52;;;;;;;17.34;100.00;101885.22;5036122;28;20515;-62
2023/09/15 08:42:10;;;;;;;15.05;10.23;;;;;;;17.35;100.00;101880.78;5038423;28;20099;-66
2023/09/15 08:44:36;;;;;;;15.60;9.57;;;;;;;17.37;100.00;101882.41;5038234;28;20031;-57
2023/09/15 08:47:04;;;;;;;13.65;9.27;;;;;;;17.52;100.00;101878.19;5038298;28;20028;-64
2023/09/15 08:49:29;;;;;;;13.40;9.73;;;;;;;17.41;100.00;101881.38;5033418;28;20137;-69
2023/09/15 08:51:55;;;;;;;12.75;8.57;;;;;;;17.57;100.00;101882.44;5034379;28;20104;-68
2023/09/15 08:54:21;;;;;;;11.90;8.95;;;;;;;17.59;100.00;101884.09;5034955;28;20491;-63
2023/09/15 08:56:47;;;;;;;14.55;8.65;;;;;;;17.74;100.00;101882.50;5035228;28;20055;-69
2023/09/15 08:59:13;;;;;;;13.43;8.43;;;;;;;17.82;100.00;101882.13;5042608;28;20029;-58
2023/09/15 09:01:39;;;;;;;13.07;7.95;;;;;;;17.85;100.00;101879.31;5034717;28;20067;-66
2023/09/15 09:04:05;;;;;;;12.70;8.35;;;;;;;17.98;100.00;101878.72;5038438;28;20045;-57
2023/09/15 09:06:32;;;;;;;10.15;7.10;;;;;;;18.15;100.00;101876.09;5041307;28;20051;-65
2023/09/15 09:08:58;;;;;;;9.27;6.32;;;;;;;18.29;100.00;101874.56;5035460;28;20532;-67
2023/09/15 09:11:23;;;;;;;9.40;6.85;;;;;;;18.42;100.00;101870.31;5034528;28;20025;-67
2023/09/15 09:13:52;;;;;;;8.55;6.53;;;;;;;18.40;100.00;101868.69;5035842;28;20037;-69
2023/09/15 09:16:19;;;;;;;10.73;7.03;;;;;;;18.47;100.00;101858.53;5033837;28;20048;-66
2023/09/15 09:18:59;;;;;;;13.85;6.95;;;;;;;18.56;100.00;101861.63;5034902;28;20038;-68
2023/09/15 09:21:28;;;;;;;11.40;8.15;;;;;;;18.56;100.00;101864.28;5034134;28;20071;-60
2023/09/15 09:23:55;;;;;;;14.77;7.95;;;;;;;18.67;100.00;101855.72;5037564;28;20017;-68
2023/09/15 09:26:20;;;;;;;11.63;7.10;;;;;;;18.72;100.00;101858.13;5035904;28;20025;-65
2023/09/15 09:28:46;;;;;;;9.95;7.82;;;;;;;18.85;100.00;101857.50;5034467;28;20083;-69
2023/09/15 09:31:12;;;;;;;11.65;7.93;;;;;;;18.93;100.00;101856.16;5036664;28;20025;-66
2023/09/15 09:33:38;;;;;;;14.52;8.60;;;;;;;19.03;100.00;101861.00;5036105;28;20394;-66
2023/09/15 09:36:11;;;;;;;9.45;7.97;;;;;;;19.17;100.00;101858.47;5036718;28;20112;-68
2023/09/15 09:38:36;;;;;;;12.02;8.27;;;;;;;19.11;100.00;101850.78;5044914;28;20052;-71
2023/09/15 09:41:04;;;;;;;12.15;7.80;;;;;;;19.15;100.00;101847.00;5035754;28;20017;-67
2023/09/15 09:43:29;;;;;;;10.18;7.65;;;;;;;19.08;100.00;101842.94;5019211;28;20100;-67
2023/09/15 09:45:55;;;;;;;10.77;7.45;;;;;;;19.35;100.00;101844.19;5030833;28;20174;-66
2023/09/15 09:48:23;;;;;;;10.70;7.65;;;;;;;19.31;100.00;101840.81;5031972;28;20481;-64
2023/09/15 09:50:49;;;;;;;12.18;6.68;;;;;;;19.44;100.00;101841.00;5038588;28;20037;-70
2023/09/15 09:53:15;;;;;;;10.23;7.20;;;;;;;19.59;100.00;101847.28;5034099;28;20029;-63
2023/09/15 09:55:44;;;;;;;12.07;6.60;;;;;;;19.64;100.00;101841.69;5040241;28;20128;-73
2023/09/15 09:58:14;;;;;;;9.23;7.07;;;;;;;19.50;100.00;101834.47;5030697;28;20065;-68
2023/09/15 10:00:39;;;;;;;11.48;6.93;;;;;;;19.65;100.00;101836.25;5028075;28;20029;-68
2023/09/15 10:03:05;;;;;;;7.13;6.40;;;;;;;19.84;100.00;101835.22;5031615;28;20053;-72
2023/09/15 10:05:31;;;;;;;8.52;6.20;;;;;;;19.85;100.00;101836.94;5031034;28;20460;-59
2023/09/15 10:07:57;;;;;;;8.48;6.18;;;;;;;20.01;97.37;101836.94;5033630;28;20492;-68
2023/09/15 10:10:23;;;;;;;7.68;6.47;;;;;;;20.08;96.57;101838.28;5038533;28;20026;-68
2023/09/15 10:12:49;;;;;;;11.70;7.75;;;;;;;20.01;97.03;101836.94;5038776;28;20021;-69
2023/09/15 10:15:14;;;;;;;11.95;5.85;;;;;;;20.12;96.04;101833.63;5028881;28;20521;-75
2023/09/15 10:17:40;;;;;;;10.50;6.30;;;;;;;20.35;94.70;101834.09;5029396;28;20124;-60
2023/09/15 10:20:06;;;;;;;9.23;6.25;;;;;;;20.35;91.99;101834.09;5033147;28;20063;-67
2023/09/15 10:22:32;;;;;;;11.20;5.75;;;;;;;20.55;90.78;101826.66;5030906;28;20037;-62
2023/09/15 10:24:58;;;;;;;10.25;7.45;;;;;;;20.37;89.68;101820.59;5031153;28;21122;-65
2023/09/15 10:27:26;;;;;;;8.18;5.88;;;;;;;20.51;89.62;101817.97;5032382;28;20112;-74
2023/09/15 10:29:52;;;;;;;9.10;6.88;;;;;;;20.76;90.76;101812.88;5013951;28;20022;-70
2023/09/15 10:32:18;;;;;;;9.80;7.28;;;;;;;20.93;87.59;101804.72;5033256;28;20033;-74
2023/09/15 10:34:44;;;;;;;11.82;7.13;;;;;;;20.92;86.77;101804.81;5035680;28;20041;-75
2023/09/15 10:37:10;;;;;;;9.90;7.53;;;;;;;21.10;86.04;101794.72;5034791;28;20045;-73
2023/09/15 10:39:37;;;;;;;9.27;6.72;;;;;;;21.11;85.36;101796.47;5034100;28;20055;-72
2023/09/15 10:42:07;;;;;;;9.90;6.93;;;;;;;21.14;83.70;101798.09;5038144;28;20025;-69
2023/09/15 10:44:32;;;;;;;9.38;8.13;;;;;;;21.38;84.01;101797.47;5030726;28;20426;-66
2023/09/15 10:46:59;;;;;;;10.80;7.60;;;;;;;21.17;83.07;101793.41;5035663;28;20033;-73
2023/09/15 10:49:24;;;;;;;9.20;5.90;;;;;;;21.38;81.94;101790.28;5034396;28;20080;-74
2023/09/15 10:51:54;;;;;;;8.57;7.05;;;;;;;21.62;80.15;101786.97;5037383;28;20443;-74
2023/09/15 10:54:20;;;;;;;8.35;6.35;;;;;;;21.78;76.72;101780.59;5035841;28;20032;-71
2023/09/15 10:56:46;;;;;;;12.00;7.68;;;;;;;21.67;76.74;101782.13;5035573;28;20047;-73
2023/09/15 10:59:11;;;;;;;12.60;7.93;;;;;;;21.59;79.00;101781.78;5037991;28;20125;-70